sensor_id;sensor_type;location;lat;lon;timestamp;temperature;humidity
5508;DHT22;2776;51.046;6.772;2023-06-10T00:00:02;19.70;99.90
5508;DHT22;2776;51.046;6.772;2023-06-10T00:02:31;19.70;99.90
5508;DHT22;2776;51.046;6.772;2023-06-10T00:04:59;19.60;99.90
5508;DHT22;2776;51.046;6.772;2023-06-10T00:07:25;19.60;99.90
5508;DHT22;2776;51.046;6.772;2023-06-10T00:09:53;19.60;99.90
5508;DHT22;2776;51.046;6.772;2023-06-10T00:12:20;19.40;99.90
5508;DHT22;2776;51.046;6.772;2023-06-10T00:14:47;19.40;99.90
5508;DHT22;2776;51.046;6.772;2023-06-10T00:17:15;19.30;99.90
5508;DHT22;2776;51.046;6.772;2023-06-10T00:19:42;19.20;99.90
5508;DHT22;2776;51.046;6.772;2023-06-10T00:22:10;19.20;99.90
5508;DHT22;2776;51.046;6.772;2023-06-10T00:24:37;19.20;99.90
5508;DHT22;2776;51.046;6.772;2023-06-10T00:27:05;19.20;99.90
5508;DHT22;2776;51.046;6.772;2023-06-10T00:29:32;19.10;99.90
5508;DHT22;2776;51.046;6.772;2023-06-10T00:31:59;19.00;99.90
5508;DHT22;2776;51.046;6.772;2023-06-10T00:34:25;19.00;99.90
5508;DHT22;2776;51.046;6.772;2023-06-10T00:36:52;18.90;99.90
5508;DHT22;2776;51.046;6.772;2023-06-10T00:39:20;18.80;99.90
5508;DHT22;2776;51.046;6.772;2023-06-10T00:41:47;18.80;99.90
5508;DHT22;2776;51.046;6.772;2023-06-10T00:44:14;18.80;99.90
5508;DHT22;2776;51.046;6.772;2023-06-10T00:46:40;18.70;99.90
5508;DHT22;2776;51.046;6.772;2023-06-10T00:49:07;18.60;99.90
5508;DHT22;2776;51.046;6.772;2023-06-10T00:51:34;18.60;99.90
5508;DHT22;2776;51.046;6.772;2023-06-10T00:54:02;18.60;99.90
5508;DHT22;2776;51.046;6.772;2023-06-10T00:56:31;18.60;99.90
5508;DHT22;2776;51.046;6.772;2023-06-10T00:58:58;18.50;99.90
5508;DHT22;2776;51.046;6.772;2023-06-10T01:01:25;18.50;99.90
5508;DHT22;2776;51.046;6.772;2023-06-10T01:03:52;18.30;99.90
5508;DHT22;2776;51.046;6.772;2023-06-10T01:06:24;18.30;99.90
5508;DHT22;2776;51.046;6.772;2023-06-10T01:09:02;18.20;99.90
5508;DHT22;2776;51.046;6.772;2023-06-10T01:11:36;18.10;99.90
5508;DHT22;2776;51.046;6.772;2023-06-10T01:14:04;18.10;99.90
5508;DHT22;2776;51.046;6.772;2023-06-10T01:16:33;18.10;99.90
5508;DHT22;2776;51.046;6.772;2023-06-10T01:19:01;18.00;99.90
5508;DHT22;2776;51.046;6.772;2023-06-10T01:21:29;18.00;99.90
5508;DHT22;2776;51.046;6.772;2023-06-10T01:23:56;17.90;99.90
5508;DHT22;2776;51.046;6.772;2023-06-10T01:26:28;18.00;99.90
5508;DHT22;2776;51.046;6.772;2023-06-10T01:28:59;18.00;99.90
5508;DHT22;2776;51.046;6.772;2023-06-10T01:31:33;18.00;99.90
5508;DHT22;2776;51.046;6.772;2023-06-10T01:34:09;18.00;99.90
5508;DHT22;2776;51.046;6.772;2023-06-10T01:36:38;17.80;99.90
5508;DHT22;2776;51.046;6.772;2023-06-10T01:39:08;17.70;99.90
5508;DHT22;2776;51.046;6.772;2023-06-10T01:41:37;17.60;99.90
5508;DHT22;2776;51.046;6.772;2023-06-10T01:44:04;17.50;99.90
5508;DHT22;2776;51.046;6.772;2023-06-10T01:46:31;17.50;99.90
5508;DHT22;2776;51.046;6.772;2023-06-10T01:48:58;17.50;99.90
5508;DHT22;2776;51.046;6.772;2023-06-10T01:51:25;17.50;99.90
5508;DHT22;2776;51.046;6.772;2023-06-10T01:53:53;17.40;99.90
5508;DHT22;2776;51.046;6.772;2023-06-10T01:56:19;17.30;99.90
5508;DHT22;2776;51.046;6.772;2023-06-10T01:58:46;17.20;99.90
5508;DHT22;2776;51.046;6.772;2023-06-10T02:01:13;17.10;99.90
5508;DHT22;2776;51.046;6.772;2023-06-10T02:03:40;17.10;99.90
5508;DHT22;2776;51.046;6.772;2023-06-10T02:06:07;17.00;99.90
5508;DHT22;2776;51.046;6.772;2023-06-10T02:08:34;16.90;99.90
5508;DHT22;2776;51.046;6.772;2023-06-10T02:11:02;16.90;99.90
5508;DHT22;2776;51.046;6.772;2023-06-10T02:13:29;16.90;99.90
5508;DHT22;2776;51.046;6.772;2023-06-10T02:15:55;16.90;99.90
5508;DHT22;2776;51.046;6.772;2023-06-10T02:18:22;16.80;99.90
5508;DHT22;2776;51.046;6.772;2023-06-10T02:20:49;16.80;99.90
5508;DHT22;2776;51.046;6.772;2023-06-10T02:23:16;16.80;99.90
5508;DHT22;2776;51.046;6.772;2023-06-10T02:25:42;16.80;99.90
5508;DHT22;2776;51.046;6.772;2023-06-10T02:28:11;16.70;99.90
5508;DHT22;2776;51.046;6.772;2023-06-10T02:30:39;16.70;99.90
5508;DHT22;2776;51.046;6.772;2023-06-10T02:33:06;16.70;99.90
5508;DHT22;2776;51.046;6.772;2023-06-10T02:35:35;16.70;99.90
5508;DHT22;2776;51.046;6.772;2023-06-10T02:38:02;16.70;99.90
5508;DHT22;2776;51.046;6.772;2023-06-10T02:40:29;16.60;99.90
5508;DHT22;2776;51.046;6.772;2023-06-10T02:42:56;16.60;99.90
5508;DHT22;2776;51.046;6.772;2023-06-10T02:45:25;16.60;99.90
5508;DHT22;2776;51.046;6.772;2023-06-10T02:47:52;16.60;99.90
5508;DHT22;2776;51.046;6.772;2023-06-10T02:50:18;16.50;99.90
5508;DHT22;2776;51.046;6.772;2023-06-10T02:52:45;16.50;99.90
5508;DHT22;2776;51.046;6.772;2023-06-10T02:55:12;16.50;99.90
5508;DHT22;2776;51.046;6.772;2023-06-10T02:57:39;16.60;99.90
5508;DHT22;2776;51.046;6.772;2023-06-10T03:00:07;16.60;99.90
5508;DHT22;2776;51.046;6.772;2023-06-10T03:02:38;16.60;99.90
5508;DHT22;2776;51.046;6.772;2023-06-10T03:05:05;16.50;99.90
5508;DHT22;2776;51.046;6.772;2023-06-10T03:07:35;16.50;99.90
5508;DHT22;2776;51.046;6.772;2023-06-10T03:10:02;16.30;99.90
5508;DHT22;2776;51.046;6.772;2023-06-10T03:12:29;16.20;99.90
5508;DHT22;2776;51.046;6.772;2023-06-10T03:14:56;16.10;99.90
5508;DHT22;2776;51.046;6.772;2023-06-10T03:17:23;16.10;99.90
5508;DHT22;2776;51.046;6.772;2023-06-10T03:19:51;16.00;99.90
5508;DHT22;2776;51.046;6.772;2023-06-10T03:22:17;16.00;99.90
5508;DHT22;2776;51.046;6.772;2023-06-10T03:24:44;16.00;99.90
5508;DHT22;2776;51.046;6.772;2023-06-10T03:27:12;16.00;99.90
5508;DHT22;2776;51.046;6.772;2023-06-10T03:29:38;16.00;99.90
5508;DHT22;2776;51.046;6.772;2023-06-10T03:32:06;16.10;99.90
5508;DHT22;2776;51.046;6.772;2023-06-10T03:34:33;16.10;99.90
5508;DHT22;2776;51.046;6.772;2023-06-10T03:37:01;16.20;99.90
5508;DHT22;2776;51.046;6.772;2023-06-10T03:39:28;16.20;99.90
5508;DHT22;2776;51.046;6.772;2023-06-10T03:41:55;16.10;99.90
5508;DHT22;2776;51.046;6.772;2023-06-10T03:44:24;16.20;99.90
5508;DHT22;2776;51.046;6.772;2023-06-10T03:46:51;16.30;99.90
5508;DHT22;2776;51.046;6.772;2023-06-10T03:49:18;16.20;99.90
5508;DHT22;2776;51.046;6.772;2023-06-10T03:51:45;16.30;99.90
5508;DHT22;2776;51.046;6.772;2023-06-10T03:54:13;16.30;99.90
5508;DHT22;2776;51.046;6.772;2023-06-10T03:56:40;16.30;99.90
5508;DHT22;2776;51.046;6.772;2023-06-10T03:59:06;16.30;99.90
5508;DHT22;2776;51.046;6.772;2023-06-10T04:01:33;16.40;99.90
5508;DHT22;2776;51.046;6.772;2023-06-10T04:04:02;16.40;99.90
5508;DHT22;2776;51.046;6.772;2023-06-10T04:06:29;16.50;99.90
5508;DHT22;2776;51.046;6.772;2023-06-10T04:08:57;16.50;99.90
5508;DHT22;2776;51.046;6.772;2023-06-10T04:11:25;16.50;99.90
5508;DHT22;2776;51.046;6.772;2023-06-10T04:13:52;16.50;99.90
5508;DHT22;2776;51.046;6.772;2023-06-10T04:16:19;16.60;99.90
5508;DHT22;2776;51.046;6.772;2023-06-10T04:18:46;16.70;99.90
5508;DHT22;2776;51.046;6.772;2023-06-10T04:21:13;16.70;99.90
5508;DHT22;2776;51.046;6.772;2023-06-10T04:23:40;16.70;99.90
5508;DHT22;2776;51.046;6.772;2023-06-10T04:26:07;16.90;99.90
5508;DHT22;2776;51.046;6.772;2023-06-10T04:28:35;16.90;99.90
5508;DHT22;2776;51.046;6.772;2023-06-10T04:31:02;16.90;99.90
5508;DHT22;2776;51.046;6.772;2023-06-10T04:33:29;17.10;99.90
5508;DHT22;2776;51.046;6.772;2023-06-10T04:35:56;17.10;99.90
5508;DHT22;2776;51.046;6.772;2023-06-10T04:38:23;17.20;99.90
5508;DHT22;2776;51.046;6.772;2023-06-10T04:40:49;17.40;99.90
5508;DHT22;2776;51.046;6.772;2023-06-10T04:43:16;17.50;99.90
5508;DHT22;2776;51.046;6.772;2023-06-10T04:45:45;17.60;99.90
5508;DHT22;2776;51.046;6.772;2023-06-10T04:48:12;17.80;99.90
5508;DHT22;2776;51.046;6.772;2023-06-10T04:50:39;18.00;99.90
5508;DHT22;2776;51.046;6.772;2023-06-10T04:53:06;18.10;99.90
5508;DHT22;2776;51.046;6.772;2023-06-10T04:55:32;18.20;99.90
5508;DHT22;2776;51.046;6.772;2023-06-10T04:57:59;18.40;99.90
5508;DHT22;2776;51.046;6.772;2023-06-10T05:00:26;18.60;99.90
5508;DHT22;2776;51.046;6.772;2023-06-10T05:02:54;18.70;99.90
5508;DHT22;2776;51.046;6.772;2023-06-10T05:05:21;18.90;99.90
5508;DHT22;2776;51.046;6.772;2023-06-10T05:07:48;19.10;99.90
5508;DHT22;2776;51.046;6.772;2023-06-10T05:10:15;19.20;99.90
5508;DHT22;2776;51.046;6.772;2023-06-10T05:12:42;19.30;99.90
5508;DHT22;2776;51.046;6.772;2023-06-10T05:15:10;19.40;99.90
5508;DHT22;2776;51.046;6.772;2023-06-10T05:17:37;19.60;99.90
5508;DHT22;2776;51.046;6.772;2023-06-10T05:20:06;19.80;99.90
5508;DHT22;2776;51.046;6.772;2023-06-10T05:22:33;20.40;99.90
5508;DHT22;2776;51.046;6.772;2023-06-10T05:25:00;21.70;99.90
5508;DHT22;2776;51.046;6.772;2023-06-10T05:27:28;23.30;99.90
5508;DHT22;2776;51.046;6.772;2023-06-10T05:29:55;24.90;99.90
5508;DHT22;2776;51.046;6.772;2023-06-10T05:32:22;26.20;99.90
5508;DHT22;2776;51.046;6.772;2023-06-10T05:34:48;27.30;99.90
5508;DHT22;2776;51.046;6.772;2023-06-10T05:37:16;28.30;99.90
5508;DHT22;2776;51.046;6.772;2023-06-10T05:39:43;29.30;97.40
5508;DHT22;2776;51.046;6.772;2023-06-10T05:42:10;30.10;95.50
5508;DHT22;2776;51.046;6.772;2023-06-10T05:44:37;30.80;90.00
5508;DHT22;2776;51.046;6.772;2023-06-10T05:47:04;31.20;82.20
5508;DHT22;2776;51.046;6.772;2023-06-10T05:49:31;31.70;74.40
5508;DHT22;2776;51.046;6.772;2023-06-10T05:51:58;31.80;68.30
5508;DHT22;2776;51.046;6.772;2023-06-10T05:54:26;31.70;66.40
5508;DHT22;2776;51.046;6.772;2023-06-10T05:56:53;31.40;63.70
5508;DHT22;2776;51.046;6.772;2023-06-10T05:59:20;30.90;63.80
5508;DHT22;2776;51.046;6.772;2023-06-10T06:01:48;30.60;66.00
5508;DHT22;2776;51.046;6.772;2023-06-10T06:04:15;30.20;67.20
5508;DHT22;2776;51.046;6.772;2023-06-10T06:06:42;29.90;67.70
5508;DHT22;2776;51.046;6.772;2023-06-10T06:09:08;29.40;68.90
5508;DHT22;2776;51.046;6.772;2023-06-10T06:11:36;28.90;76.20
5508;DHT22;2776;51.046;6.772;2023-06-10T06:14:03;28.50;79.30
5508;DHT22;2776;51.046;6.772;2023-06-10T06:16:30;28.20;80.60
5508;DHT22;2776;51.046;6.772;2023-06-10T06:18:56;27.80;81.40
5508;DHT22;2776;51.046;6.772;2023-06-10T06:21:23;27.70;85.50
5508;DHT22;2776;51.046;6.772;2023-06-10T06:23:50;27.40;70.50
5508;DHT22;2776;51.046;6.772;2023-06-10T06:26:17;27.20;72.60
5508;DHT22;2776;51.046;6.772;2023-06-10T06:28:45;27.00;77.30
5508;DHT22;2776;51.046;6.772;2023-06-10T06:31:12;26.80;76.50
5508;DHT22;2776;51.046;6.772;2023-06-10T06:33:38;26.60;80.40
5508;DHT22;2776;51.046;6.772;2023-06-10T06:36:05;26.70;78.40
5508;DHT22;2776;51.046;6.772;2023-06-10T06:38:32;26.50;79.20
5508;DHT22;2776;51.046;6.772;2023-06-10T06:40:59;26.50;75.40
5508;DHT22;2776;51.046;6.772;2023-06-10T06:43:28;26.50;79.60
5508;DHT22;2776;51.046;6.772;2023-06-10T06:45:57;26.50;80.10
5508;DHT22;2776;51.046;6.772;2023-06-10T06:48:24;26.40;80.00
5508;DHT22;2776;51.046;6.772;2023-06-10T06:50:50;26.40;76.30
5508;DHT22;2776;51.046;6.772;2023-06-10T06:53:17;26.50;78.40
5508;DHT22;2776;51.046;6.772;2023-06-10T06:55:44;26.50;77.50
5508;DHT22;2776;51.046;6.772;2023-06-10T06:58:10;26.50;78.30
5508;DHT22;2776;51.046;6.772;2023-06-10T07:00:37;26.60;77.20
5508;DHT22;2776;51.046;6.772;2023-06-10T07:03:05;26.50;75.10
5508;DHT22;2776;51.046;6.772;2023-06-10T07:05:32;26.50;75.90
5508;DHT22;2776;51.046;6.772;2023-06-10T07:07:59;26.50;73.20
5508;DHT22;2776;51.046;6.772;2023-06-10T07:10:26;26.50;76.60
5508;DHT22;2776;51.046;6.772;2023-06-10T07:12:53;26.60;72.70
5508;DHT22;2776;51.046;6.772;2023-06-10T07:15:19;26.60;68.40
5508;DHT22;2776;51.046;6.772;2023-06-10T07:17:46;26.90;64.10
5508;DHT22;2776;51.046;6.772;2023-06-10T07:20:14;27.60;63.40
5508;DHT22;2776;51.046;6.772;2023-06-10T07:22:41;28.30;64.30
5508;DHT22;2776;51.046;6.772;2023-06-10T07:25:08;29.40;59.90
5508;DHT22;2776;51.046;6.772;2023-06-10T07:27:35;30.20;55.40
5508;DHT22;2776;51.046;6.772;2023-06-10T07:30:03;30.40;53.10
5508;DHT22;2776;51.046;6.772;2023-06-10T07:32:30;30.30;54.30
5508;DHT22;2776;51.046;6.772;2023-06-10T07:34:56;29.80;52.60
5508;DHT22;2776;51.046;6.772;2023-06-10T07:37:24;29.40;53.30
5508;DHT22;2776;51.046;6.772;2023-06-10T07:39:51;28.50;53.50
5508;DHT22;2776;51.046;6.772;2023-06-10T07:42:18;28.10;56.40
5508;DHT22;2776;51.046;6.772;2023-06-10T07:44:45;27.70;56.30
5508;DHT22;2776;51.046;6.772;2023-06-10T07:47:11;27.40;58.30
5508;DHT22;2776;51.046;6.772;2023-06-10T07:49:38;27.30;58.20
5508;DHT22;2776;51.046;6.772;2023-06-10T07:52:07;27.30;60.10
5508;DHT22;2776;51.046;6.772;2023-06-10T07:54:35;27.20;62.20
5508;DHT22;2776;51.046;6.772;2023-06-10T07:57:02;27.20;61.40
5508;DHT22;2776;51.046;6.772;2023-06-10T07:59:29;27.20;61.20
5508;DHT22;2776;51.046;6.772;2023-06-10T08:01:56;27.20;59.90
5508;DHT22;2776;51.046;6.772;2023-06-10T08:04:22;27.10;59.60
5508;DHT22;2776;51.046;6.772;2023-06-10T08:06:49;26.80;57.50
5508;DHT22;2776;51.046;6.772;2023-06-10T08:09:16;26.80;59.80
5508;DHT22;2776;51.046;6.772;2023-06-10T08:11:46;26.80;61.50
5508;DHT22;2776;51.046;6.772;2023-06-10T08:14:13;26.90;60.10
5508;DHT22;2776;51.046;6.772;2023-06-10T08:16:39;27.00;60.70
5508;DHT22;2776;51.046;6.772;2023-06-10T08:19:06;27.20;62.90
5508;DHT22;2776;51.046;6.772;2023-06-10T08:21:34;27.30;60.00
5508;DHT22;2776;51.046;6.772;2023-06-10T08:24:02;27.40;60.20
5508;DHT22;2776;51.046;6.772;2023-06-10T08:26:29;27.60;60.00
5508;DHT22;2776;51.046;6.772;2023-06-10T08:28:57;27.70;59.80
5508;DHT22;2776;51.046;6.772;2023-06-10T08:31:24;27.90;60.10
5508;DHT22;2776;51.046;6.772;2023-06-10T08:33:50;27.80;58.70
5508;DHT22;2776;51.046;6.772;2023-06-10T08:36:17;27.80;60.90
5508;DHT22;2776;51.046;6.772;2023-06-10T08:38:44;27.80;57.80
5508;DHT22;2776;51.046;6.772;2023-06-10T08:41:12;27.90;58.20
5508;DHT22;2776;51.046;6.772;2023-06-10T08:43:44;28.00;58.00
5508;DHT22;2776;51.046;6.772;2023-06-10T08:46:14;28.00;57.80
5508;DHT22;2776;51.046;6.772;2023-06-10T08:48:43;28.10;62.60
5508;DHT22;2776;51.046;6.772;2023-06-10T08:51:10;28.10;59.50
5508;DHT22;2776;51.046;6.772;2023-06-10T08:53:41;28.10;58.00
5508;DHT22;2776;51.046;6.772;2023-06-10T08:56:10;27.90;58.10
5508;DHT22;2776;51.046;6.772;2023-06-10T08:58:37;28.00;58.30
5508;DHT22;2776;51.046;6.772;2023-06-10T09:01:07;28.00;60.30
5508;DHT22;2776;51.046;6.772;2023-06-10T09:03:36;28.10;58.70
5508;DHT22;2776;51.046;6.772;2023-06-10T09:06:04;28.20;55.60
5508;DHT22;2776;51.046;6.772;2023-06-10T09:08:31;28.30;58.70
5508;DHT22;2776;51.046;6.772;2023-06-10T09:10:59;28.40;58.90
5508;DHT22;2776;51.046;6.772;2023-06-10T09:13:26;28.30;57.90
5508;DHT22;2776;51.046;6.772;2023-06-10T09:15:53;28.40;61.50
5508;DHT22;2776;51.046;6.772;2023-06-10T09:18:22;28.40;58.60
5508;DHT22;2776;51.046;6.772;2023-06-10T09:20:51;28.50;56.80
5508;DHT22;2776;51.046;6.772;2023-06-10T09:23:18;28.50;56.50
5508;DHT22;2776;51.046;6.772;2023-06-10T09:25:45;28.70;56.60
5508;DHT22;2776;51.046;6.772;2023-06-10T09:28:14;28.80;57.10
5508;DHT22;2776;51.046;6.772;2023-06-10T09:30:41;28.70;57.60
5508;DHT22;2776;51.046;6.772;2023-06-10T09:33:11;28.60;57.40
5508;DHT22;2776;51.046;6.772;2023-06-10T09:35:45;28.50;55.70
5508;DHT22;2776;51.046;6.772;2023-06-10T09:38:14;28.60;55.90
5508;DHT22;2776;51.046;6.772;2023-06-10T09:40:49;28.60;54.10
5508;DHT22;2776;51.046;6.772;2023-06-10T09:43:16;28.80;56.60
5508;DHT22;2776;51.046;6.772;2023-06-10T09:45:43;28.90;54.80
5508;DHT22;2776;51.046;6.772;2023-06-10T09:48:10;28.90;53.40
5508;DHT22;2776;51.046;6.772;2023-06-10T09:50:42;28.90;55.90
5508;DHT22;2776;51.046;6.772;2023-06-10T09:53:10;28.90;55.50
5508;DHT22;2776;51.046;6.772;2023-06-10T09:55:39;28.80;56.00
5508;DHT22;2776;51.046;6.772;2023-06-10T09:58:06;28.70;57.20
5508;DHT22;2776;51.046;6.772;2023-06-10T10:00:33;28.80;56.00
5508;DHT22;2776;51.046;6.772;2023-06-10T10:03:00;28.90;55.10
5508;DHT22;2776;51.046;6.772;2023-06-10T10:05:28;29.00;53.60
5508;DHT22;2776;51.046;6.772;2023-06-10T10:07:55;29.20;53.00
5508;DHT22;2776;51.046;6.772;2023-06-10T10:10:23;29.30;52.70
5508;DHT22;2776;51.046;6.772;2023-06-10T10:12:54;29.40;53.90
5508;DHT22;2776;51.046;6.772;2023-06-10T10:15:24;29.50;54.20
5508;DHT22;2776;51.046;6.772;2023-06-10T10:17:53;29.60;53.00
5508;DHT22;2776;51.046;6.772;2023-06-10T10:20:26;29.60;53.00
5508;DHT22;2776;51.046;6.772;2023-06-10T10:22:56;29.70;51.60
5508;DHT22;2776;51.046;6.772;2023-06-10T10:25:27;29.80;52.20
5508;DHT22;2776;51.046;6.772;2023-06-10T10:27:59;29.80;52.80
5508;DHT22;2776;51.046;6.772;2023-06-10T10:30:30;29.90;56.20
5508;DHT22;2776;51.046;6.772;2023-06-10T10:33:05;30.10;53.10
5508;DHT22;2776;51.046;6.772;2023-06-10T10:35:34;30.30;55.90
5508;DHT22;2776;51.046;6.772;2023-06-10T10:38:02;30.40;54.10
5508;DHT22;2776;51.046;6.772;2023-06-10T10:40:30;30.50;55.40
5508;DHT22;2776;51.046;6.772;2023-06-10T10:43:00;30.40;51.60
5508;DHT22;2776;51.046;6.772;2023-06-10T10:45:28;30.70;56.20
5508;DHT22;2776;51.046;6.772;2023-06-10T10:47:55;30.90;56.30
5508;DHT22;2776;51.046;6.772;2023-06-10T10:50:22;31.20;50.90
5508;DHT22;2776;51.046;6.772;2023-06-10T10:52:54;31.40;49.20
5508;DHT22;2776;51.046;6.772;2023-06-10T10:55:22;31.50;47.10
5508;DHT22;2776;51.046;6.772;2023-06-10T10:57:54;31.50;46.60
5508;DHT22;2776;51.046;6.772;2023-06-10T11:00:29;31.50;46.10
5508;DHT22;2776;51.046;6.772;2023-06-10T11:03:03;31.70;47.20
5508;DHT22;2776;51.046;6.772;2023-06-10T11:05:36;31.30;46.40
5508;DHT22;2776;51.046;6.772;2023-06-10T11:08:03;31.10;44.30
5508;DHT22;2776;51.046;6.772;2023-06-10T11:10:32;31.10;46.50
5508;DHT22;2776;51.046;6.772;2023-06-10T11:12:59;31.10;46.80
5508;DHT22;2776;51.046;6.772;2023-06-10T11:15:28;31.00;46.40
5508;DHT22;2776;51.046;6.772;2023-06-10T11:18:13;30.90;45.20
5508;DHT22;2776;51.046;6.772;2023-06-10T11:20:57;30.90;48.00
5508;DHT22;2776;51.046;6.772;2023-06-10T11:23:35;31.00;46.70
5508;DHT22;2776;51.046;6.772;2023-06-10T11:26:18;31.00;47.40
5508;DHT22;2776;51.046;6.772;2023-06-10T11:29:06;31.00;48.30
5508;DHT22;2776;51.046;6.772;2023-06-10T11:31:41;31.00;50.30
5508;DHT22;2776;51.046;6.772;2023-06-10T11:34:09;31.00;49.90
5508;DHT22;2776;51.046;6.772;2023-06-10T11:36:37;31.00;48.60
5508;DHT22;2776;51.046;6.772;2023-06-10T11:39:06;31.10;47.00
5508;DHT22;2776;51.046;6.772;2023-06-10T11:41:34;31.10;46.30
5508;DHT22;2776;51.046;6.772;2023-06-10T11:44:03;31.00;45.50
5508;DHT22;2776;51.046;6.772;2023-06-10T11:46:30;31.10;45.90
5508;DHT22;2776;51.046;6.772;2023-06-10T11:48:59;31.20;46.00
5508;DHT22;2776;51.046;6.772;2023-06-10T11:51:29;31.40;45.20
5508;DHT22;2776;51.046;6.772;2023-06-10T11:53:56;31.70;44.70
5508;DHT22;2776;51.046;6.772;2023-06-10T11:56:23;31.90;46.40
5508;DHT22;2776;51.046;6.772;2023-06-10T11:58:55;32.00;44.20
5508;DHT22;2776;51.046;6.772;2023-06-10T12:01:24;32.20;47.30
5508;DHT22;2776;51.046;6.772;2023-06-10T12:04:00;32.20;45.10
5508;DHT22;2776;51.046;6.772;2023-06-10T12:06:37;32.30;44.00
5508;DHT22;2776;51.046;6.772;2023-06-10T12:09:04;32.20;45.60
5508;DHT22;2776;51.046;6.772;2023-06-10T12:11:31;31.80;43.70
5508;DHT22;2776;51.046;6.772;2023-06-10T12:13:57;31.60;43.80
5508;DHT22;2776;51.046;6.772;2023-06-10T12:16:24;31.30;44.60
5508;DHT22;2776;51.046;6.772;2023-06-10T12:18:51;31.30;46.00
5508;DHT22;2776;51.046;6.772;2023-06-10T12:21:29;31.20;45.30
5508;DHT22;2776;51.046;6.772;2023-06-10T12:24:01;31.10;46.30
5508;DHT22;2776;51.046;6.772;2023-06-10T12:26:36;31.00;46.80
5508;DHT22;2776;51.046;6.772;2023-06-10T12:29:16;30.90;46.00
5508;DHT22;2776;51.046;6.772;2023-06-10T12:31:54;31.00;45.70
5508;DHT22;2776;51.046;6.772;2023-06-10T12:34:31;31.20;45.90
5508;DHT22;2776;51.046;6.772;2023-06-10T12:37:00;31.30;44.40
5508;DHT22;2776;51.046;6.772;2023-06-10T12:39:27;31.50;42.60
5508;DHT22;2776;51.046;6.772;2023-06-10T12:41:54;31.70;36.70
5508;DHT22;2776;51.046;6.772;2023-06-10T12:44:29;31.80;35.50
5508;DHT22;2776;51.046;6.772;2023-06-10T12:46:55;31.80;36.90
5508;DHT22;2776;51.046;6.772;2023-06-10T12:49:22;31.90;36.60
5508;DHT22;2776;51.046;6.772;2023-06-10T12:51:49;31.90;34.80
5508;DHT22;2776;51.046;6.772;2023-06-10T12:54:17;31.90;36.30
5508;DHT22;2776;51.046;6.772;2023-06-10T12:56:44;31.80;35.70
5508;DHT22;2776;51.046;6.772;2023-06-10T12:59:11;31.70;36.20
5508;DHT22;2776;51.046;6.772;2023-06-10T13:01:37;31.80;34.60
5508;DHT22;2776;51.046;6.772;2023-06-10T13:04:05;31.90;37.60
5508;DHT22;2776;51.046;6.772;2023-06-10T13:06:32;32.10;35.80
5508;DHT22;2776;51.046;6.772;2023-06-10T13:09:02;32.00;36.20
5508;DHT22;2776;51.046;6.772;2023-06-10T13:11:30;32.10;35.50
5508;DHT22;2776;51.046;6.772;2023-06-10T13:13:57;32.00;36.30
5508;DHT22;2776;51.046;6.772;2023-06-10T13:16:23;32.00;34.10
5508;DHT22;2776;51.046;6.772;2023-06-10T13:18:53;32.20;35.80
5508;DHT22;2776;51.046;6.772;2023-06-10T13:21:20;32.20;34.00
5508;DHT22;2776;51.046;6.772;2023-06-10T13:23:47;32.20;36.40
5508;DHT22;2776;51.046;6.772;2023-06-10T13:26:14;32.20;37.30
5508;DHT22;2776;51.046;6.772;2023-06-10T13:28:43;32.00;36.60
5508;DHT22;2776;51.046;6.772;2023-06-10T13:31:09;31.60;36.50
5508;DHT22;2776;51.046;6.772;2023-06-10T13:33:36;31.30;37.90
5508;DHT22;2776;51.046;6.772;2023-06-10T13:36:04;31.20;37.10
5508;DHT22;2776;51.046;6.772;2023-06-10T13:38:31;31.20;37.20
5508;DHT22;2776;51.046;6.772;2023-06-10T13:40:57;31.20;36.70
5508;DHT22;2776;51.046;6.772;2023-06-10T13:43:24;31.10;36.90
5508;DHT22;2776;51.046;6.772;2023-06-10T13:45:52;30.90;36.20
5508;DHT22;2776;51.046;6.772;2023-06-10T13:48:19;30.70;36.80
5508;DHT22;2776;51.046;6.772;2023-06-10T13:50:46;30.60;38.30
5508;DHT22;2776;51.046;6.772;2023-06-10T13:53:13;30.50;38.20
5508;DHT22;2776;51.046;6.772;2023-06-10T13:55:40;30.40;38.70
5508;DHT22;2776;51.046;6.772;2023-06-10T13:58:07;30.40;39.40
5508;DHT22;2776;51.046;6.772;2023-06-10T14:00:34;30.50;40.30
5508;DHT22;2776;51.046;6.772;2023-06-10T14:03:02;30.70;37.70
5508;DHT22;2776;51.046;6.772;2023-06-10T14:05:29;30.90;37.00
5508;DHT22;2776;51.046;6.772;2023-06-10T14:07:56;31.00;36.70
5508;DHT22;2776;51.046;6.772;2023-06-10T14:10:23;31.20;35.80
5508;DHT22;2776;51.046;6.772;2023-06-10T14:12:49;31.40;35.20
5508;DHT22;2776;51.046;6.772;2023-06-10T14:15:17;31.70;35.10
5508;DHT22;2776;51.046;6.772;2023-06-10T14:17:44;31.80;32.80
5508;DHT22;2776;51.046;6.772;2023-06-10T14:20:12;31.90;33.00
5508;DHT22;2776;51.046;6.772;2023-06-10T14:22:39;32.10;32.80
5508;DHT22;2776;51.046;6.772;2023-06-10T14:25:06;32.10;31.70
5508;DHT22;2776;51.046;6.772;2023-06-10T14:27:33;32.20;32.00
5508;DHT22;2776;51.046;6.772;2023-06-10T14:30:00;32.20;30.10
5508;DHT22;2776;51.046;6.772;2023-06-10T14:32:28;32.10;29.40
5508;DHT22;2776;51.046;6.772;2023-06-10T14:34:55;32.00;31.80
5508;DHT22;2776;51.046;6.772;2023-06-10T14:37:23;31.60;30.70
5508;DHT22;2776;51.046;6.772;2023-06-10T14:39:49;31.30;31.60
5508;DHT22;2776;51.046;6.772;2023-06-10T14:42:16;31.00;31.20
5508;DHT22;2776;51.046;6.772;2023-06-10T14:44:43;30.90;32.10
5508;DHT22;2776;51.046;6.772;2023-06-10T14:47:10;30.60;32.50
5508;DHT22;2776;51.046;6.772;2023-06-10T14:49:36;30.60;33.20
5508;DHT22;2776;51.046;6.772;2023-06-10T14:52:04;30.40;31.80
5508;DHT22;2776;51.046;6.772;2023-06-10T14:54:32;30.30;33.60
5508;DHT22;2776;51.046;6.772;2023-06-10T14:56:58;30.30;33.20
5508;DHT22;2776;51.046;6.772;2023-06-10T14:59:25;30.30;33.30
5508;DHT22;2776;51.046;6.772;2023-06-10T15:01:52;30.50;33.10
5508;DHT22;2776;51.046;6.772;2023-06-10T15:04:19;30.50;34.80
5508;DHT22;2776;51.046;6.772;2023-06-10T15:06:45;30.60;35.20
5508;DHT22;2776;51.046;6.772;2023-06-10T15:09:14;30.70;35.20
5508;DHT22;2776;51.046;6.772;2023-06-10T15:11:42;30.70;38.40
5508;DHT22;2776;51.046;6.772;2023-06-10T15:14:09;30.70;40.10
5508;DHT22;2776;51.046;6.772;2023-06-10T15:16:36;30.70;41.10
5508;DHT22;2776;51.046;6.772;2023-06-10T15:19:02;30.80;41.90
5508;DHT22;2776;51.046;6.772;2023-06-10T15:21:32;30.90;41.60
5508;DHT22;2776;51.046;6.772;2023-06-10T15:23:58;31.00;41.30
5508;DHT22;2776;51.046;6.772;2023-06-10T15:26:25;31.00;42.00
5508;DHT22;2776;51.046;6.772;2023-06-10T15:28:53;31.10;41.90
5508;DHT22;2776;51.046;6.772;2023-06-10T15:31:20;31.10;40.70
5508;DHT22;2776;51.046;6.772;2023-06-10T15:33:47;31.20;41.40
5508;DHT22;2776;51.046;6.772;2023-06-10T15:36:14;31.20;35.90
5508;DHT22;2776;51.046;6.772;2023-06-10T15:38:41;31.10;32.20
5508;DHT22;2776;51.046;6.772;2023-06-10T15:41:07;31.00;30.60
5508;DHT22;2776;51.046;6.772;2023-06-10T15:43:34;30.90;31.10
5508;DHT22;2776;51.046;6.772;2023-06-10T15:46:02;31.00;33.40
5508;DHT22;2776;51.046;6.772;2023-06-10T15:48:29;30.90;33.90
5508;DHT22;2776;51.046;6.772;2023-06-10T15:50:56;30.70;35.10
5508;DHT22;2776;51.046;6.772;2023-06-10T15:53:22;30.80;34.60
5508;DHT22;2776;51.046;6.772;2023-06-10T15:55:49;30.80;34.90
5508;DHT22;2776;51.046;6.772;2023-06-10T15:58:16;30.70;33.40
5508;DHT22;2776;51.046;6.772;2023-06-10T16:00:43;30.80;33.90
5508;DHT22;2776;51.046;6.772;2023-06-10T16:03:11;30.80;33.40
5508;DHT22;2776;51.046;6.772;2023-06-10T16:05:38;30.80;34.00